sensor_id;sensor_type;location;lat;lon;timestamp;pressure;altitude;pressure_sealevel;temperature;humidity
78892;BME280;68368;51.728;5.248;2023-04-25T00:01:13;101110.93;;;4.13;85.16
78892;BME280;68368;51.728;5.248;2023-04-25T00:03:15;101112.87;;;4.13;85.42
78892;BME280;68368;51.728;5.248;2023-04-25T00:05:18;101113.05;;;4.13;85.45
78892;BME280;68368;51.728;5.248;2023-04-25T00:07:19;101114.77;;;4.12;85.67
78892;BME280;68368;51.728;5.248;2023-04-25T00:09:21;101112.11;;;4.11;85.28
78892;BME280;68368;51.728;5.248;2023-04-25T00:11:23;101120.52;;;4.10;85.29
78892;BME280;68368;51.728;5.248;2023-04-25T00:13:26;101118.91;;;4.08;85.34
78892;BME280;68368;51.728;5.248;2023-04-25T00:15:28;101125.40;;;4.07;85.30
78892;BME280;68368;51.728;5.248;2023-04-25T00:17:30;101126.59;;;4.06;85.32
78892;BME280;68368;51.728;5.248;2023-04-25T00:19:32;101126.04;;;4.05;85.45
78892;BME280;68368;51.728;5.248;2023-04-25T00:21:35;101131.11;;;4.03;85.54
78892;BME280;68368;51.728;5.248;2023-04-25T00:23:37;101129.79;;;3.99;85.43
78892;BME280;68368;51.728;5.248;2023-04-25T00:25:39;101132.01;;;3.97;85.74
78892;BME280;68368;51.728;5.248;2023-04-25T00:27:42;101128.63;;;3.94;85.43
78892;BME280;68368;51.728;5.248;2023-04-25T00:29:44;101135.05;;;3.91;85.23
78892;BME280;68368;51.728;5.248;2023-04-25T00:31:47;101141.69;;;3.90;85.59
78892;BME280;68368;51.728;5.248;2023-04-25T00:33:51;101141.31;;;3.89;85.55
78892;BME280;68368;51.728;5.248;2023-04-25T00:35:53;101135.81;;;3.85;85.40
78892;BME280;68368;51.728;5.248;2023-04-25T00:37:55;101133.35;;;3.85;86.03
78892;BME280;68368;51.728;5.248;2023-04-25T00:39:58;101136.48;;;3.84;85.65
78892;BME280;68368;51.728;5.248;2023-04-25T00:42:00;101136.81;;;3.83;85.65
78892;BME280;68368;51.728;5.248;2023-04-25T00:44:03;101135.92;;;3.82;85.76
78892;BME280;68368;51.728;5.248;2023-04-25T00:46:05;101133.64;;;3.82;85.88
78892;BME280;68368;51.728;5.248;2023-04-25T00:48:07;101133.29;;;3.82;85.69
78892;BME280;68368;51.728;5.248;2023-04-25T00:50:10;101133.27;;;3.82;85.52
78892;BME280;68368;51.728;5.248;2023-04-25T00:52:12;101132.02;;;3.80;85.46
78892;BME280;68368;51.728;5.248;2023-04-25T00:54:14;101132.52;;;3.79;85.53
78892;BME280;68368;51.728;5.248;2023-04-25T00:56:17;101137.41;;;3.78;85.21
78892;BME280;68368;51.728;5.248;2023-04-25T00:58:19;101139.64;;;3.76;85.67
78892;BME280;68368;51.728;5.248;2023-04-25T01:00:22;101142.14;;;3.78;85.73
78892;BME280;68368;51.728;5.248;2023-04-25T01:02:24;101142.86;;;3.79;85.38
78892;BME280;68368;51.728;5.248;2023-04-25T01:04:27;101144.86;;;3.82;85.96
78892;BME280;68368;51.728;5.248;2023-04-25T01:06:32;101146.87;;;3.85;85.71
78892;BME280;68368;51.728;5.248;2023-04-25T01:08:34;101143.09;;;3.89;85.63
78892;BME280;68368;51.728;5.248;2023-04-25T01:10:36;101144.77;;;3.94;85.66
78892;BME280;68368;51.728;5.248;2023-04-25T01:12:38;101145.04;;;3.98;85.49
78892;BME280;68368;51.728;5.248;2023-04-25T01:14:41;101140.59;;;4.03;85.56
78892;BME280;68368;51.728;5.248;2023-04-25T01:16:45;101140.85;;;4.07;85.23
78892;BME280;68368;51.728;5.248;2023-04-25T01:18:49;101145.50;;;4.12;85.27
78892;BME280;68368;51.728;5.248;2023-04-25T01:20:52;101144.89;;;4.15;84.91
78892;BME280;68368;51.728;5.248;2023-04-25T01:22:55;101148.95;;;4.17;85.03
78892;BME280;68368;51.728;5.248;2023-04-25T01:24:57;101153.05;;;4.19;84.80
78892;BME280;68368;51.728;5.248;2023-04-25T01:27:00;101155.67;;;4.19;84.60
78892;BME280;68368;51.728;5.248;2023-04-25T01:29:04;101155.11;;;4.18;84.84
78892;BME280;68368;51.728;5.248;2023-04-25T01:31:06;101151.70;;;4.13;84.78
78892;BME280;68368;51.728;5.248;2023-04-25T01:33:09;101156.08;;;4.13;84.72
78892;BME280;68368;51.728;5.248;2023-04-25T01:35:12;101157.60;;;4.10;84.51
78892;BME280;68368;51.728;5.248;2023-04-25T01:37:14;101154.54;;;4.06;84.53
78892;BME280;68368;51.728;5.248;2023-04-25T01:39:18;101158.52;;;4.04;84.43
78892;BME280;68368;51.728;5.248;2023-04-25T01:41:20;101162.17;;;4.02;84.69
78892;BME280;68368;51.728;5.248;2023-04-25T01:43:23;101160.35;;;4.00;84.52
78892;BME280;68368;51.728;5.248;2023-04-25T01:45:25;101155.40;;;3.97;84.50
78892;BME280;68368;51.728;5.248;2023-04-25T01:47:27;101156.38;;;3.95;84.36
78892;BME280;68368;51.728;5.248;2023-04-25T01:49:32;101159.13;;;3.92;84.29
78892;BME280;68368;51.728;5.248;2023-04-25T01:51:35;101162.23;;;3.89;84.56
78892;BME280;68368;51.728;5.248;2023-04-25T01:53:36;101163.42;;;3.87;84.49
78892;BME280;68368;51.728;5.248;2023-04-25T01:55:38;101166.36;;;3.85;84.39
78892;BME280;68368;51.728;5.248;2023-04-25T01:57:40;101165.61;;;3.83;84.24
78892;BME280;68368;51.728;5.248;2023-04-25T01:59:43;101164.31;;;3.80;84.52
78892;BME280;68368;51.728;5.248;2023-04-25T02:01:45;101169.04;;;3.79;84.66
78892;BME280;68368;51.728;5.248;2023-04-25T02:03:47;101170.93;;;3.78;84.55
78892;BME280;68368;51.728;5.248;2023-04-25T02:05:49;101171.21;;;3.75;84.53
78892;BME280;68368;51.728;5.248;2023-04-25T02:07:51;101173.92;;;3.70;84.31
78892;BME280;68368;51.728;5.248;2023-04-25T02:09:53;101172.41;;;3.66;84.58
78892;BME280;68368;51.728;5.248;2023-04-25T02:11:57;101173.84;;;3.59;84.81
78892;BME280;68368;51.728;5.248;2023-04-25T02:13:59;101174.08;;;3.55;84.52
78892;BME280;68368;51.728;5.248;2023-04-25T02:16:01;101176.24;;;3.49;84.48
78892;BME280;68368;51.728;5.248;2023-04-25T02:18:04;101179.59;;;3.44;84.49
78892;BME280;68368;51.728;5.248;2023-04-25T02:20:08;101177.55;;;3.39;84.51
78892;BME280;68368;51.728;5.248;2023-04-25T02:22:13;101177.27;;;3.34;84.89
78892;BME280;68368;51.728;5.248;2023-04-25T02:24:15;101179.99;;;3.31;85.20
78892;BME280;68368;51.728;5.248;2023-04-25T02:26:17;101185.05;;;3.29;85.18
78892;BME280;68368;51.728;5.248;2023-04-25T02:28:20;101185.55;;;3.28;85.48
78892;BME280;68368;51.728;5.248;2023-04-25T02:30:22;101185.77;;;3.30;85.58
78892;BME280;68368;51.728;5.248;2023-04-25T02:32:24;101185.47;;;3.32;85.13
78892;BME280;68368;51.728;5.248;2023-04-25T02:34:29;101184.39;;;3.31;85.45
78892;BME280;68368;51.728;5.248;2023-04-25T02:36:31;101183.95;;;3.35;85.54
78892;BME280;68368;51.728;5.248;2023-04-25T02:38:32;101180.47;;;3.36;85.46
78892;BME280;68368;51.728;5.248;2023-04-25T02:40:34;101181.05;;;3.37;85.28
78892;BME280;68368;51.728;5.248;2023-04-25T02:42:38;101180.52;;;3.37;85.14
78892;BME280;68368;51.728;5.248;2023-04-25T02:44:40;101176.77;;;3.35;85.19
78892;BME280;68368;51.728;5.248;2023-04-25T02:46:41;101184.05;;;3.38;85.25
78892;BME280;68368;51.728;5.248;2023-04-25T02:48:46;101184.92;;;3.39;84.88
78892;BME280;68368;51.728;5.248;2023-04-25T02:50:48;101185.87;;;3.40;85.05
78892;BME280;68368;51.728;5.248;2023-04-25T02:52:50;101190.30;;;3.44;85.39
78892;BME280;68368;51.728;5.248;2023-04-25T02:54:51;101188.11;;;3.47;85.26
78892;BME280;68368;51.728;5.248;2023-04-25T02:56:53;101186.80;;;3.51;85.09
78892;BME280;68368;51.728;5.248;2023-04-25T02:58:55;101185.27;;;3.53;85.02
78892;BME280;68368;51.728;5.248;2023-04-25T03:00:57;101187.11;;;3.56;85.06
78892;BME280;68368;51.728;5.248;2023-04-25T03:02:59;101182.91;;;3.57;84.83
78892;BME280;68368;51.728;5.248;2023-04-25T03:05:01;101182.55;;;3.57;85.04
78892;BME280;68368;51.728;5.248;2023-04-25T03:07:06;101176.89;;;3.55;84.83
78892;BME280;68368;51.728;5.248;2023-04-25T03:09:08;101183.23;;;3.55;84.60
78892;BME280;68368;51.728;5.248;2023-04-25T03:11:10;101181.60;;;3.54;84.87
78892;BME280;68368;51.728;5.248;2023-04-25T03:13:12;101183.70;;;3.53;84.93
78892;BME280;68368;51.728;5.248;2023-04-25T03:15:14;101180.30;;;3.51;84.96
78892;BME280;68368;51.728;5.248;2023-04-25T03:17:16;101181.65;;;3.48;84.84
78892;BME280;68368;51.728;5.248;2023-04-25T03:19:20;101185.10;;;3.46;85.16
78892;BME280;68368;51.728;5.248;2023-04-25T03:21:21;101186.23;;;3.42;84.87
78892;BME280;68368;51.728;5.248;2023-04-25T03:23:24;101187.20;;;3.38;84.96
78892;BME280;68368;51.728;5.248;2023-04-25T03:25:29;101189.56;;;3.35;84.94
78892;BME280;68368;51.728;5.248;2023-04-25T03:27:32;101189.55;;;3.34;85.28
78892;BME280;68368;51.728;5.248;2023-04-25T03:29:34;101189.88;;;3.34;85.34
78892;BME280;68368;51.728;5.248;2023-04-25T03:31:36;101190.42;;;3.34;85.27
78892;BME280;68368;51.728;5.248;2023-04-25T03:33:38;101189.55;;;3.34;85.14
78892;BME280;68368;51.728;5.248;2023-04-25T03:35:40;101185.29;;;3.32;85.35
78892;BME280;68368;51.728;5.248;2023-04-25T03:37:42;101186.01;;;3.33;85.13
78892;BME280;68368;51.728;5.248;2023-04-25T03:39:44;101188.81;;;3.33;85.30
78892;BME280;68368;51.728;5.248;2023-04-25T03:41:46;101194.58;;;3.31;85.54
78892;BME280;68368;51.728;5.248;2023-04-25T03:43:47;101193.83;;;3.29;85.38
78892;BME280;68368;51.728;5.248;2023-04-25T03:45:50;101191.31;;;3.27;85.29
78892;BME280;68368;51.728;5.248;2023-04-25T03:47:54;101191.30;;;3.27;85.29
78892;BME280;68368;51.728;5.248;2023-04-25T03:49:57;101194.07;;;3.26;85.47
78892;BME280;68368;51.728;5.248;2023-04-25T03:51:59;101198.66;;;3.26;85.67
78892;BME280;68368;51.728;5.248;2023-04-25T03:54:03;101195.52;;;3.27;85.70
78892;BME280;68368;51.728;5.248;2023-04-25T03:56:07;101194.49;;;3.28;85.58
78892;BME280;68368;51.728;5.248;2023-04-25T03:58:08;101202.42;;;3.29;85.52
78892;BME280;68368;51.728;5.248;2023-04-25T04:00:14;101205.07;;;3.30;85.57
78892;BME280;68368;51.728;5.248;2023-04-25T04:02:17;101202.29;;;3.31;85.48
78892;BME280;68368;51.728;5.248;2023-04-25T04:04:20;101204.27;;;3.34;85.55
78892;BME280;68368;51.728;5.248;2023-04-25T04:06:22;101208.38;;;3.36;85.60
78892;BME280;68368;51.728;5.248;2023-04-25T04:08:24;101210.73;;;3.38;84.99
78892;BME280;68368;51.728;5.248;2023-04-25T04:10:26;101213.45;;;3.43;85.27
78892;BME280;68368;51.728;5.248;2023-04-25T04:12:28;101215.83;;;3.46;85.43
78892;BME280;68368;51.728;5.248;2023-04-25T04:14:30;101218.00;;;3.49;85.16
78892;BME280;68368;51.728;5.248;2023-04-25T04:16:34;101221.94;;;3.52;85.18
78892;BME280;68368;51.728;5.248;2023-04-25T04:18:36;101226.73;;;3.55;85.19
78892;BME280;68368;51.728;5.248;2023-04-25T04:20:37;101229.80;;;3.57;85.25
78892;BME280;68368;51.728;5.248;2023-04-25T04:22:40;101228.63;;;3.60;85.13
78892;BME280;68368;51.728;5.248;2023-04-25T04:24:42;101226.77;;;3.63;85.14
78892;BME280;68368;51.728;5.248;2023-04-25T04:26:44;101224.04;;;3.67;85.26
78892;BME280;68368;51.728;5.248;2023-04-25T04:28:48;101224.65;;;3.70;84.84
78892;BME280;68368;51.728;5.248;2023-04-25T04:30:50;101231.39;;;3.73;84.93
78892;BME280;68368;51.728;5.248;2023-04-25T04:32:52;101235.86;;;3.76;84.85
78892;BME280;68368;51.728;5.248;2023-04-25T04:34:54;101236.27;;;3.79;85.01
78892;BME280;68368;51.728;5.248;2023-04-25T04:36:56;101239.52;;;3.82;84.83
78892;BME280;68368;51.728;5.248;2023-04-25T04:38:57;101242.62;;;3.87;84.46
78892;BME280;68368;51.728;5.248;2023-04-25T04:40:59;101244.73;;;3.95;84.47
78892;BME280;68368;51.728;5.248;2023-04-25T04:43:01;101242.11;;;4.03;84.09
78892;BME280;68368;51.728;5.248;2023-04-25T04:45:05;101239.63;;;4.10;83.72
78892;BME280;68368;51.728;5.248;2023-04-25T04:47:07;101239.81;;;4.18;83.25
78892;BME280;68368;51.728;5.248;2023-04-25T04:49:09;101233.13;;;4.25;82.81
78892;BME280;68368;51.728;5.248;2023-04-25T04:51:11;101236.28;;;4.33;82.25
78892;BME280;68368;51.728;5.248;2023-04-25T04:53:13;101237.45;;;4.38;82.38
78892;BME280;68368;51.728;5.248;2023-04-25T04:55:15;101237.02;;;4.43;82.00
78892;BME280;68368;51.728;5.248;2023-04-25T04:57:17;101242.94;;;4.48;82.00
78892;BME280;68368;51.728;5.248;2023-04-25T04:59:19;101240.08;;;4.54;82.09
78892;BME280;68368;51.728;5.248;2023-04-25T05:01:22;101251.42;;;4.59;81.77
78892;BME280;68368;51.728;5.248;2023-04-25T05:03:24;101254.17;;;4.64;82.08
78892;BME280;68368;51.728;5.248;2023-04-25T05:05:26;101264.84;;;4.70;81.53
78892;BME280;68368;51.728;5.248;2023-04-25T05:07:28;101269.19;;;4.76;81.54
78892;BME280;68368;51.728;5.248;2023-04-25T05:09:30;101269.49;;;4.83;81.29
78892;BME280;68368;51.728;5.248;2023-04-25T05:11:32;101272.63;;;4.89;80.72
78892;BME280;68368;51.728;5.248;2023-04-25T05:13:34;101274.52;;;4.96;81.17
78892;BME280;68368;51.728;5.248;2023-04-25T05:15:36;101274.72;;;5.07;80.30
78892;BME280;68368;51.728;5.248;2023-04-25T05:17:40;101277.41;;;5.18;79.71
78892;BME280;68368;51.728;5.248;2023-04-25T05:19:42;101280.80;;;5.31;79.81
78892;BME280;68368;51.728;5.248;2023-04-25T05:21:46;101288.79;;;5.43;79.58
78892;BME280;68368;51.728;5.248;2023-04-25T05:23:49;101294.27;;;5.55;79.31
78892;BME280;68368;51.728;5.248;2023-04-25T05:25:53;101295.78;;;5.61;78.66
78892;BME280;68368;51.728;5.248;2023-04-25T05:27:57;101297.12;;;5.67;78.36
78892;BME280;68368;51.728;5.248;2023-04-25T05:30:02;101298.98;;;5.73;77.85
78892;BME280;68368;51.728;5.248;2023-04-25T05:32:05;101299.06;;;5.78;77.52
78892;BME280;68368;51.728;5.248;2023-04-25T05:34:07;101302.85;;;5.83;77.18
78892;BME280;68368;51.728;5.248;2023-04-25T05:36:09;101305.95;;;5.90;76.94
78892;BME280;68368;51.728;5.248;2023-04-25T05:38:12;101310.89;;;5.98;76.04
78892;BME280;68368;51.728;5.248;2023-04-25T05:40:14;101305.59;;;6.45;73.94
78892;BME280;68368;51.728;5.248;2023-04-25T05:42:16;101304.93;;;7.89;71.86
78892;BME280;68368;51.728;5.248;2023-04-25T05:44:18;101301.66;;;9.34;69.18
78892;BME280;68368;51.728;5.248;2023-04-25T05:46:21;101302.20;;;10.59;65.66
78892;BME280;68368;51.728;5.248;2023-04-25T05:48:23;101300.59;;;11.73;64.60
78892;BME280;68368;51.728;5.248;2023-04-25T05:50:26;101302.21;;;12.68;58.76
78892;BME280;68368;51.728;5.248;2023-04-25T05:52:28;101304.40;;;13.36;56.20
78892;BME280;68368;51.728;5.248;2023-04-25T05:54:32;101303.08;;;13.44;55.85
78892;BME280;68368;51.728;5.248;2023-04-25T05:56:34;101310.04;;;13.78;54.07
78892;BME280;68368;51.728;5.248;2023-04-25T05:58:35;101323.30;;;14.18;53.99
78892;BME280;68368;51.728;5.248;2023-04-25T06:00:38;101320.28;;;14.77;50.01
78892;BME280;68368;51.728;5.248;2023-04-25T06:02:42;101317.70;;;15.07;50.26
78892;BME280;68368;51.728;5.248;2023-04-25T06:04:47;101320.85;;;15.60;48.94
78892;BME280;68368;51.728;5.248;2023-04-25T06:06:52;101320.40;;;15.94;47.96
78892;BME280;68368;51.728;5.248;2023-04-25T06:08:54;101319.73;;;16.55;46.21
78892;BME280;68368;51.728;5.248;2023-04-25T06:10:56;101317.52;;;16.84;43.59
78892;BME280;68368;51.728;5.248;2023-04-25T06:12:58;101320.73;;;16.97;44.72
78892;BME280;68368;51.728;5.248;2023-04-25T06:15:00;101323.13;;;17.07;46.17
78892;BME280;68368;51.728;5.248;2023-04-25T06:17:03;101324.09;;;17.70;42.47
78892;BME280;68368;51.728;5.248;2023-04-25T06:19:05;101327.31;;;18.10;41.83
78892;BME280;68368;51.728;5.248;2023-04-25T06:21:10;101324.19;;;18.12;40.78
78892;BME280;68368;51.728;5.248;2023-04-25T06:23:12;101330.32;;;18.32;40.83
78892;BME280;68368;51.728;5.248;2023-04-25T06:25:14;101326.05;;;18.87;40.88
78892;BME280;68368;51.728;5.248;2023-04-25T06:27:20;101321.11;;;19.32;38.48
78892;BME280;68368;51.728;5.248;2023-04-25T06:29:22;101322.70;;;19.42;36.90
78892;BME280;68368;51.728;5.248;2023-04-25T06:31:24;101320.98;;;19.36;35.86
78892;BME280;68368;51.728;5.248;2023-04-25T06:33:26;101320.43;;;19.36;35.08
78892;BME280;68368;51.728;5.248;2023-04-25T06:35:28;101325.83;;;18.98;37.05
78892;BME280;68368;51.728;5.248;2023-04-25T06:37:30;101334.83;;;18.73;37.59
78892;BME280;68368;51.728;5.248;2023-04-25T06:39:32;101341.14;;;18.36;37.73
78892;BME280;68368;51.728;5.248;2023-04-25T06:41:34;101338.66;;;18.35;36.51
78892;BME280;68368;51.728;5.248;2023-04-25T06:43:37;101340.80;;;18.04;36.88
78892;BME280;68368;51.728;5.248;2023-04-25T06:45:39;101344.48;;;17.84;38.22
78892;BME280;68368;51.728;5.248;2023-04-25T06:47:41;101342.27;;;17.45;39.25
78892;BME280;68368;51.728;5.248;2023-04-25T06:49:43;101342.60;;;17.03;39.40
78892;BME280;68368;51.728;5.248;2023-04-25T06:51:45;101349.95;;;16.71;39.48
78892;BME280;68368;51.728;5.248;2023-04-25T06:53:50;101358.51;;;17.31;38.06
78892;BME280;68368;51.728;5.248;2023-04-25T06:55:52;101353.65;;;17.37;37.20
78892;BME280;68368;51.728;5.248;2023-04-25T06:57:53;101361.50;;;17.38;36.63
78892;BME280;68368;51.728;5.248;2023-04-25T06:59:55;101359.31;;;17.51;36.72
78892;BME280;68368;51.728;5.248;2023-04-25T07:02:00;101362.79;;;17.96;36.27
78892;BME280;68368;51.728;5.248;2023-04-25T07:04:04;101367.83;;;18.01;35.83
78892;BME280;68368;51.728;5.248;2023-04-25T07:06:06;101372.17;;;17.17;37.20
78892;BME280;68368;51.728;5.248;2023-04-25T07:08:08;101377.35;;;16.23;39.04
78892;BME280;68368;51.728;5.248;2023-04-25T07:10:11;101380.45;;;15.34;40.39
78892;BME280;68368;51.728;5.248;2023-04-25T07:12:16;101389.61;;;14.47;41.72
78892;BME280;68368;51.728;5.248;2023-04-25T07:14:18;101389.13;;;13.87;42.78
78892;BME280;68368;51.728;5.248;2023-04-25T07:16:21;101398.43;;;13.61;43.57
78892;BME280;68368;51.728;5.248;2023-04-25T07:18:23;101395.71;;;13.51;44.82
78892;BME280;68368;51.728;5.248;2023-04-25T07:20:25;101395.53;;;13.64;44.95
78892;BME280;68368;51.728;5.248;2023-04-25T07:22:28;101394.69;;;13.85;46.05
78892;BME280;68368;51.728;5.248;2023-04-25T07:24:33;101394.59;;;14.04;45.62
78892;BME280;68368;51.728;5.248;2023-04-25T07:26:37;101401.28;;;14.10;44.82
78892;BME280;68368;51.728;5.248;2023-04-25T07:28:39;101400.16;;;13.90;45.55
78892;BME280;68368;51.728;5.248;2023-04-25T07:30:41;101406.11;;;13.72;45.84
78892;BME280;68368;51.728;5.248;2023-04-25T07:32:43;101409.30;;;13.49;46.15
78892;BME280;68368;51.728;5.248;2023-04-25T07:34:45;101415.12;;;13.23;47.22
78892;BME280;68368;51.728;5.248;2023-04-25T07:36:47;101413.84;;;13.09;48.38
78892;BME280;68368;51.728;5.248;2023-04-25T07:38:49;101414.09;;;12.84;48.42
78892;BME280;68368;51.728;5.248;2023-04-25T07:40:51;101416.36;;;12.52;48.95
78892;BME280;68368;51.728;5.248;2023-04-25T07:42:53;101417.55;;;12.16;49.68
78892;BME280;68368;51.728;5.248;2023-04-25T07:44:55;101423.48;;;11.78;50.63
78892;BME280;68368;51.728;5.248;2023-04-25T07:46:57;101426.86;;;11.36;51.93
78892;BME280;68368;51.728;5.248;2023-04-25T07:48:59;101433.88;;;11.08;53.36
78892;BME280;68368;51.728;5.248;2023-04-25T07:51:01;101431.80;;;10.90;53.79
78892;BME280;68368;51.728;5.248;2023-04-25T07:53:04;101438.20;;;10.82;54.35
78892;BME280;68368;51.728;5.248;2023-04-25T07:55:06;101440.34;;;10.68;54.35
78892;BME280;68368;51.728;5.248;2023-04-25T07:57:08;101440.17;;;10.45;54.50
78892;BME280;68368;51.728;5.248;2023-04-25T07:59:12;101439.27;;;10.28;55.09
78892;BME280;68368;51.728;5.248;2023-04-25T08:01:13;101444.39;;;10.21;54.97
78892;BME280;68368;51.728;5.248;2023-04-25T08:03:15;101442.06;;;10.17;55.16
78892;BME280;68368;51.728;5.248;2023-04-25T08:05:17;101444.37;;;10.17;54.70
78892;BME280;68368;51.728;5.248;2023-04-25T08:07:20;101446.33;;;10.17;54.74
78892;BME280;68368;51.728;5.248;2023-04-25T08:09:22;101445.08;;;10.17;54.43
78892;BME280;68368;51.728;5.248;2023-04-25T08:11:23;101448.66;;;10.23;54.37
78892;BME280;68368;51.728;5.248;2023-04-25T08:13:25;101453.84;;;10.37;53.96
78892;BME280;68368;51.728;5.248;2023-04-25T08:15:30;101451.89;;;10.50;53.71
78892;BME280;68368;51.728;5.248;2023-04-25T08:17:32;101454.55;;;10.62;53.49
78892;BME280;68368;51.728;5.248;2023-04-25T08:19:35;101454.90;;;10.77;53.39
78892;BME280;68368;51.728;5.248;2023-04-25T08:21:38;101459.67;;;10.95;53.54
78892;BME280;68368;51.728;5.248;2023-04-25T08:23:42;101470.48;;;11.15;52.21
78892;BME280;68368;51.728;5.248;2023-04-25T08:25:44;101471.67;;;11.31;52.12
78892;BME280;68368;51.728;5.248;2023-04-25T08:27:46;101477.49;;;11.44;50.87
78892;BME280;68368;51.728;5.248;2023-04-25T08:29:48;101472.60;;;11.69;51.01
78892;BME280;68368;51.728;5.248;2023-04-25T08:31:50;101473.40;;;11.91;50.79
78892;BME280;68368;51.728;5.248;2023-04-25T08:33:51;101467.42;;;12.10;50.12
78892;BME280;68368;51.728;5.248;2023-04-25T08:35:54;101477.23;;;12.34;50.50
78892;BME280;68368;51.728;5.248;2023-04-25T08:37:55;101476.09;;;12.66;50.08
78892;BME280;68368;51.728;5.248;2023-04-25T08:39:57;101478.25;;;13.02;48.24
78892;BME280;68368;51.728;5.248;2023-04-25T08:41:59;101480.84;;;13.12;46.80
78892;BME280;68368;51.728;5.248;2023-04-25T08:44:03;101487.36;;;13.19;46.19
78892;BME280;68368;51.728;5.248;2023-04-25T08:46:08;101490.75;;;13.38;46.23
78892;BME280;68368;51.728;5.248;2023-04-25T08:48:12;101490.09;;;13.48;46.14
78892;BME280;68368;51.728;5.248;2023-04-25T08:50:14;101497.39;;;13.50;45.81
78892;BME280;68368;51.728;5.248;2023-04-25T08:52:22;101499.16;;;13.51;46.83
78892;BME280;68368;51.728;5.248;2023-04-25T08:54:27;101509.17;;;13.64;47.33
78892;BME280;68368;51.728;5.248;2023-04-25T08:56:29;101510.16;;;13.57;46.14
78892;BME280;68368;51.728;5.248;2023-04-25T08:58:34;101510.66;;;13.27;45.38
78892;BME280;68368;51.728;5.248;2023-04-25T09:00:37;101512.64;;;13.03;45.73
78892;BME280;68368;51.728;5.248;2023-04-25T09:02:39;101517.10;;;12.83;44.39
78892;BME280;68368;51.728;5.248;2023-04-25T09:04:42;101520.92;;;12.73;45.23
78892;BME280;68368;51.728;5.248;2023-04-25T09:06:45;101525.41;;;12.68;46.06
78892;BME280;68368;51.728;5.248;2023-04-25T09:08:49;101528.56;;;12.76;45.78
78892;BME280;68368;51.728;5.248;2023-04-25T09:10:51;101528.67;;;12.83;46.27
78892;BME280;68368;51.728;5.248;2023-04-25T09:13:07;101530.27;;;12.85;46.11
78892;BME280;68368;51.728;5.248;2023-04-25T09:15:13;101529.98;;;12.76;44.18
78892;BME280;68368;51.728;5.248;2023-04-25T09:17:15;101533.48;;;12.61;44.30
78892;BME280;68368;51.728;5.248;2023-04-25T09:19:23;101536.02;;;12.56;45.31
78892;BME280;68368;51.728;5.248;2023-04-25T09:21:25;101536.89;;;12.82;45.24
78892;BME280;68368;51.728;5.248;2023-04-25T09:23:27;101542.23;;;13.03;42.40
78892;BME280;68368;51.728;5.248;2023-04-25T09:25:34;101540.21;;;13.09;41.21
78892;BME280;68368;51.728;5.248;2023-04-25T09:27:36;101547.73;;;13.26;39.79
78892;BME280;68368;51.728;5.248;2023-04-25T09:29:58;101556.02;;;13.39;39.15
78892;BME280;68368;51.728;5.248;2023-04-25T09:32:20;101554.91;;;13.43;38.47
78892;BME280;68368;51.728;5.248;2023-04-25T09:34:23;101557.11;;;13.53;40.20
78892;BME280;68368;51.728;5.248;2023-04-25T09:36:29;101553.84;;;13.74;39.14
78892;BME280;68368;51.728;5.248;2023-04-25T09:38:32;101556.11;;;13.78;37.75
78892;BME280;68368;51.728;5.248;2023-04-25T09:40:35;101552.86;;;13.81;37.95
78892;BME280;68368;51.728;5.248;2023-04-25T09:42:42;101553.03;;;13.97;39.15
78892;BME280;68368;51.728;5.248;2023-04-25T09:44:45;101553.29;;;14.17;38.01
78892;BME280;68368;51.728;5.248;2023-04-25T09:46:50;101550.75;;;14.47;38.13
78892;BME280;68368;51.728;5.248;2023-04-25T09:48:51;101548.50;;;14.67;37.38
78892;BME280;68368;51.728;5.248;2023-04-25T09:51:08;101546.73;;;14.78;39.40
78892;BME280;68368;51.728;5.248;2023-04-25T09:53:10;101553.15;;;14.89;38.06
78892;BME280;68368;51.728;5.248;2023-04-25T09:55:13;101556.25;;;15.17;38.55
78892;BME280;68368;51.728;5.248;2023-04-25T09:57:17;101550.94;;;15.14;38.34
78892;BME280;68368;51.728;5.248;2023-04-25T09:59:20;101549.19;;;14.90;39.28
78892;BME280;68368;51.728;5.248;2023-04-25T10:01:23;101546.84;;;14.70;38.93
78892;BME280;68368;51.728;5.248;2023-04-25T10:03:27;101546.97;;;14.49;39.30
78892;BME280;68368;51.728;5.248;2023-04-25T10:05:32;101551.74;;;14.26;39.46
78892;BME280;68368;51.728;5.248;2023-04-25T10:07:37;101553.48;;;14.03;40.50
78892;BME280;68368;51.728;5.248;2023-04-25T10:09:40;101555.10;;;13.88;40.87
78892;BME280;68368;51.728;5.248;2023-04-25T10:11:42;101556.08;;;13.66;40.28
78892;BME280;68368;51.728;5.248;2023-04-25T10:13:45;101563.34;;;13.35;41.56
78892;BME280;68368;51.728;5.248;2023-04-25T10:15:47;101560.45;;;12.99;42.19
78892;BME280;68368;51.728;5.248;2023-04-25T10:17:50;101563.70;;;12.69;41.93
78892;BME280;68368;51.728;5.248;2023-04-25T10:19:52;101564.40;;;12.47;41.31
78892;BME280;68368;51.728;5.248;2023-04-25T10:22:02;101567.91;;;12.23;42.15
78892;BME280;68368;51.728;5.248;2023-04-25T10:24:06;101572.58;;;12.15;44.48
78892;BME280;68368;51.728;5.248;2023-04-25T10:26:08;101575.44;;;12.14;44.35
78892;BME280;68368;51.728;5.248;2023-04-25T10:28:10;101582.27;;;11.99;43.94
78892;BME280;68368;51.728;5.248;2023-04-25T10:30:14;101588.02;;;11.74;44.51
78892;BME280;68368;51.728;5.248;2023-04-25T10:32:17;101591.79;;;11.51;45.62
78892;BME280;68368;51.728;5.248;2023-04-25T10:34:23;101594.32;;;11.36;46.42
78892;BME280;68368;51.728;5.248;2023-04-25T10:36:25;101600.17;;;11.34;47.34
78892;BME280;68368;51.728;5.248;2023-04-25T10:38:30;101602.85;;;11.35;47.55
78892;BME280;68368;51.728;5.248;2023-04-25T10:40:33;101607.30;;;11.23;47.37
78892;BME280;68368;51.728;5.248;2023-04-25T10:42:35;101609.42;;;11.17;47.34
78892;BME280;68368;51.728;5.248;2023-04-25T10:44:38;101610.85;;;11.16;46.79
78892;BME280;68368;51.728;5.248;2023-04-25T10:46:40;101615.66;;;11.23;46.73